sensor_id;sensor_type;location;lat;lon;timestamp;P1;durP1;ratioP1;P2;durP2;ratioP2
73693;SDS011;61997;53.974;11.670;2022-07-22T00:02:19;9.32;;;6.97;;
73693;SDS011;61997;53.974;11.670;2022-07-22T00:04:45;13.05;;;8.25;;
73693;SDS011;61997;53.974;11.670;2022-07-22T00:07:10;10.32;;;7.97;;
73693;SDS011;61997;53.974;11.670;2022-07-22T00:09:36;10.35;;;7.63;;
73693;SDS011;61997;53.974;11.670;2022-07-22T00:12:02;10.82;;;7.45;;
73693;SDS011;61997;53.974;11.670;2022-07-22T00:14:27;9.73;;;7.63;;
73693;SDS011;61997;53.974;11.670;2022-07-22T00:16:53;12.48;;;8.10;;
73693;SDS011;61997;53.974;11.670;2022-07-22T00:19:19;11.32;;;7.97;;
73693;SDS011;61997;53.974;11.670;2022-07-22T00:21:44;10.07;;;8.20;;
73693;SDS011;61997;53.974;11.670;2022-07-22T00:24:10;9.68;;;6.97;;
73693;SDS011;61997;53.974;11.670;2022-07-22T00:26:35;11.82;;;7.68;;
73693;SDS011;61997;53.974;11.670;2022-07-22T00:29:01;10.68;;;7.70;;
73693;SDS011;61997;53.974;11.670;2022-07-22T00:31:28;10.85;;;7.60;;
73693;SDS011;61997;53.974;11.670;2022-07-22T00:33:53;10.32;;;7.30;;
73693;SDS011;61997;53.974;11.670;2022-07-22T00:36:19;8.25;;;6.82;;
73693;SDS011;61997;53.974;11.670;2022-07-22T00:38:44;10.35;;;7.20;;
73693;SDS011;61997;53.974;11.670;2022-07-22T00:41:11;11.20;;;7.38;;
73693;SDS011;61997;53.974;11.670;2022-07-22T00:43:53;9.10;;;6.85;;
73693;SDS011;61997;53.974;11.670;2022-07-22T00:46:23;10.50;;;7.20;;
73693;SDS011;61997;53.974;11.670;2022-07-22T00:48:50;11.30;;;7.05;;
73693;SDS011;61997;53.974;11.670;2022-07-22T00:51:17;10.90;;;7.10;;
73693;SDS011;61997;53.974;11.670;2022-07-22T00:53:44;9.43;;;7.20;;
73693;SDS011;61997;53.974;11.670;2022-07-22T00:56:11;9.35;;;7.03;;
73693;SDS011;61997;53.974;11.670;2022-07-22T00:58:37;9.70;;;6.97;;
73693;SDS011;61997;53.974;11.670;2022-07-22T01:01:03;10.10;;;7.13;;
73693;SDS011;61997;53.974;11.670;2022-07-22T01:03:29;9.40;;;6.80;;
73693;SDS011;61997;53.974;11.670;2022-07-22T01:05:55;8.57;;;6.43;;
73693;SDS011;61997;53.974;11.670;2022-07-22T01:08:20;9.15;;;6.38;;
73693;SDS011;61997;53.974;11.670;2022-07-22T01:10:46;7.93;;;5.97;;
73693;SDS011;61997;53.974;11.670;2022-07-22T01:13:11;7.88;;;7.05;;
73693;SDS011;61997;53.974;11.670;2022-07-22T01:15:37;10.48;;;6.45;;
73693;SDS011;61997;53.974;11.670;2022-07-22T01:18:02;8.27;;;6.57;;
73693;SDS011;61997;53.974;11.670;2022-07-22T01:20:28;9.20;;;6.60;;
73693;SDS011;61997;53.974;11.670;2022-07-22T01:22:53;8.40;;;6.50;;
73693;SDS011;61997;53.974;11.670;2022-07-22T01:25:19;9.25;;;6.47;;
73693;SDS011;61997;53.974;11.670;2022-07-22T01:27:45;9.35;;;6.90;;
73693;SDS011;61997;53.974;11.670;2022-07-22T01:30:10;9.32;;;6.75;;
73693;SDS011;61997;53.974;11.670;2022-07-22T01:32:36;7.88;;;6.28;;
73693;SDS011;61997;53.974;11.670;2022-07-22T01:35:01;6.30;;;5.28;;
73693;SDS011;61997;53.974;11.670;2022-07-22T01:37:27;8.25;;;6.28;;
73693;SDS011;61997;53.974;11.670;2022-07-22T01:39:52;7.53;;;5.55;;
73693;SDS011;61997;53.974;11.670;2022-07-22T01:42:18;8.15;;;6.78;;
73693;SDS011;61997;53.974;11.670;2022-07-22T01:44:43;8.38;;;6.25;;
73693;SDS011;61997;53.974;11.670;2022-07-22T01:47:09;8.38;;;6.50;;
73693;SDS011;61997;53.974;11.670;2022-07-22T01:49:35;8.98;;;6.20;;
73693;SDS011;61997;53.974;11.670;2022-07-22T01:52:02;7.03;;;5.85;;
73693;SDS011;61997;53.974;11.670;2022-07-22T01:54:29;7.13;;;5.90;;
73693;SDS011;61997;53.974;11.670;2022-07-22T01:56:54;8.27;;;6.35;;
73693;SDS011;61997;53.974;11.670;2022-07-22T01:59:20;7.88;;;6.10;;
73693;SDS011;61997;53.974;11.670;2022-07-22T02:01:45;7.22;;;6.15;;
73693;SDS011;61997;53.974;11.670;2022-07-22T02:04:10;8.82;;;6.45;;
73693;SDS011;61997;53.974;11.670;2022-07-22T02:06:36;7.13;;;5.28;;
73693;SDS011;61997;53.974;11.670;2022-07-22T02:09:02;7.95;;;6.00;;
73693;SDS011;61997;53.974;11.670;2022-07-22T02:11:27;7.50;;;5.60;;
73693;SDS011;61997;53.974;11.670;2022-07-22T02:13:53;7.45;;;5.82;;
73693;SDS011;61997;53.974;11.670;2022-07-22T02:16:18;9.38;;;6.40;;
73693;SDS011;61997;53.974;11.670;2022-07-22T02:18:43;6.70;;;5.38;;
73693;SDS011;61997;53.974;11.670;2022-07-22T02:21:09;7.65;;;5.85;;
73693;SDS011;61997;53.974;11.670;2022-07-22T02:23:35;6.72;;;5.93;;
73693;SDS011;61997;53.974;11.670;2022-07-22T02:26:01;6.47;;;5.22;;
73693;SDS011;61997;53.974;11.670;2022-07-22T02:28:26;8.90;;;6.22;;
73693;SDS011;61997;53.974;11.670;2022-07-22T02:30:52;6.95;;;5.57;;
73693;SDS011;61997;53.974;11.670;2022-07-22T02:33:17;8.48;;;6.22;;
73693;SDS011;61997;53.974;11.670;2022-07-22T02:35:42;7.00;;;5.88;;
73693;SDS011;61997;53.974;11.670;2022-07-22T02:38:08;7.30;;;5.20;;
73693;SDS011;61997;53.974;11.670;2022-07-22T02:40:33;7.90;;;5.28;;
73693;SDS011;61997;53.974;11.670;2022-07-22T02:42:59;7.10;;;5.35;;
73693;SDS011;61997;53.974;11.670;2022-07-22T02:45:24;8.75;;;5.55;;
73693;SDS011;61997;53.974;11.670;2022-07-22T02:47:53;7.70;;;5.68;;
73693;SDS011;61997;53.974;11.670;2022-07-22T02:50:20;8.55;;;5.22;;
73693;SDS011;61997;53.974;11.670;2022-07-22T02:52:46;7.28;;;5.78;;
73693;SDS011;61997;53.974;11.670;2022-07-22T02:55:11;8.00;;;5.85;;
73693;SDS011;61997;53.974;11.670;2022-07-22T02:57:37;7.75;;;5.53;;
73693;SDS011;61997;53.974;11.670;2022-07-22T03:00:03;7.43;;;5.53;;
73693;SDS011;61997;53.974;11.670;2022-07-22T03:02:30;6.57;;;5.35;;
73693;SDS011;61997;53.974;11.670;2022-07-22T03:04:56;7.10;;;5.53;;
73693;SDS011;61997;53.974;11.670;2022-07-22T03:07:21;7.82;;;5.68;;
73693;SDS011;61997;53.974;11.670;2022-07-22T03:09:46;6.82;;;5.18;;
73693;SDS011;61997;53.974;11.670;2022-07-22T03:12:12;6.85;;;4.90;;
73693;SDS011;61997;53.974;11.670;2022-07-22T03:14:37;7.03;;;5.55;;
73693;SDS011;61997;53.974;11.670;2022-07-22T03:17:03;6.53;;;5.45;;
73693;SDS011;61997;53.974;11.670;2022-07-22T03:19:31;6.57;;;5.18;;
73693;SDS011;61997;53.974;11.670;2022-07-22T03:21:59;7.68;;;5.95;;
73693;SDS011;61997;53.974;11.670;2022-07-22T03:24:25;6.45;;;5.35;;
73693;SDS011;61997;53.974;11.670;2022-07-22T03:26:50;6.28;;;4.85;;
73693;SDS011;61997;53.974;11.670;2022-07-22T03:29:15;6.93;;;5.00;;
73693;SDS011;61997;53.974;11.670;2022-07-22T03:31:41;6.28;;;4.60;;
73693;SDS011;61997;53.974;11.670;2022-07-22T03:34:06;6.35;;;5.60;;
73693;SDS011;61997;53.974;11.670;2022-07-22T03:36:32;6.63;;;5.38;;
73693;SDS011;61997;53.974;11.670;2022-07-22T03:38:57;7.57;;;5.53;;
73693;SDS011;61997;53.974;11.670;2022-07-22T03:41:22;6.90;;;5.45;;
73693;SDS011;61997;53.974;11.670;2022-07-22T03:43:48;7.18;;;5.18;;
73693;SDS011;61997;53.974;11.670;2022-07-22T03:46:14;7.40;;;5.43;;
73693;SDS011;61997;53.974;11.670;2022-07-22T03:48:40;6.43;;;4.85;;
73693;SDS011;61997;53.974;11.670;2022-07-22T03:51:07;7.20;;;5.30;;
73693;SDS011;61997;53.974;11.670;2022-07-22T03:53:33;8.73;;;5.13;;
73693;SDS011;61997;53.974;11.670;2022-07-22T03:55:59;7.13;;;5.43;;
73693;SDS011;61997;53.974;11.670;2022-07-22T03:58:24;5.60;;;5.05;;
73693;SDS011;61997;53.974;11.670;2022-07-22T04:00:51;9.48;;;5.38;;
73693;SDS011;61997;53.974;11.670;2022-07-22T04:03:17;6.45;;;5.25;;
73693;SDS011;61997;53.974;11.670;2022-07-22T04:05:42;7.95;;;5.32;;
73693;SDS011;61997;53.974;11.670;2022-07-22T04:08:08;7.53;;;5.07;;
73693;SDS011;61997;53.974;11.670;2022-07-22T04:10:33;7.72;;;5.07;;
73693;SDS011;61997;53.974;11.670;2022-07-22T04:12:59;6.05;;;4.90;;
73693;SDS011;61997;53.974;11.670;2022-07-22T04:15:24;7.20;;;4.78;;
73693;SDS011;61997;53.974;11.670;2022-07-22T04:17:49;6.97;;;4.65;;
73693;SDS011;61997;53.974;11.670;2022-07-22T04:20:15;6.75;;;4.90;;
73693;SDS011;61997;53.974;11.670;2022-07-22T04:22:40;6.35;;;4.60;;
73693;SDS011;61997;53.974;11.670;2022-07-22T04:25:06;6.03;;;5.00;;
73693;SDS011;61997;53.974;11.670;2022-07-22T04:27:31;6.35;;;4.82;;
73693;SDS011;61997;53.974;11.670;2022-07-22T04:29:58;5.90;;;4.72;;
73693;SDS011;61997;53.974;11.670;2022-07-22T04:32:23;5.45;;;4.35;;
73693;SDS011;61997;53.974;11.670;2022-07-22T04:34:49;6.25;;;4.82;;
73693;SDS011;61997;53.974;11.670;2022-07-22T04:37:14;5.75;;;4.68;;
73693;SDS011;61997;53.974;11.670;2022-07-22T04:39:39;6.53;;;4.70;;
73693;SDS011;61997;53.974;11.670;2022-07-22T04:42:05;5.57;;;4.65;;
73693;SDS011;61997;53.974;11.670;2022-07-22T04:44:30;6.00;;;4.05;;
73693;SDS011;61997;53.974;11.670;2022-07-22T04:46:56;6.10;;;4.45;;
73693;SDS011;61997;53.974;11.670;2022-07-22T04:49:21;6.03;;;4.18;;
73693;SDS011;61997;53.974;11.670;2022-07-22T04:51:47;5.22;;;4.07;;
73693;SDS011;61997;53.974;11.670;2022-07-22T04:54:12;7.25;;;4.40;;
73693;SDS011;61997;53.974;11.670;2022-07-22T04:56:37;6.38;;;4.93;;
73693;SDS011;61997;53.974;11.670;2022-07-22T04:59:03;7.60;;;5.15;;
73693;SDS011;61997;53.974;11.670;2022-07-22T05:01:28;4.70;;;4.20;;
73693;SDS011;61997;53.974;11.670;2022-07-22T05:03:54;5.53;;;4.28;;
73693;SDS011;61997;53.974;11.670;2022-07-22T05:06:20;5.57;;;4.18;;
73693;SDS011;61997;53.974;11.670;2022-07-22T05:08:45;7.40;;;4.38;;
73693;SDS011;61997;53.974;11.670;2022-07-22T05:11:11;5.55;;;4.07;;
73693;SDS011;61997;53.974;11.670;2022-07-22T05:13:37;5.53;;;4.15;;
73693;SDS011;61997;53.974;11.670;2022-07-22T05:16:04;6.22;;;4.43;;
73693;SDS011;61997;53.974;11.670;2022-07-22T05:18:31;5.47;;;3.97;;
73693;SDS011;61997;53.974;11.670;2022-07-22T05:20:56;6.13;;;3.80;;
73693;SDS011;61997;53.974;11.670;2022-07-22T05:23:21;5.55;;;4.05;;
73693;SDS011;61997;53.974;11.670;2022-07-22T05:25:47;4.97;;;4.25;;
73693;SDS011;61997;53.974;11.670;2022-07-22T05:28:12;5.22;;;4.00;;
73693;SDS011;61997;53.974;11.670;2022-07-22T05:30:38;5.18;;;4.07;;
73693;SDS011;61997;53.974;11.670;2022-07-22T05:33:03;5.35;;;4.10;;
73693;SDS011;61997;53.974;11.670;2022-07-22T05:35:29;4.38;;;3.28;;
73693;SDS011;61997;53.974;11.670;2022-07-22T05:37:54;5.20;;;4.00;;
73693;SDS011;61997;53.974;11.670;2022-07-22T05:40:19;4.45;;;3.53;;
73693;SDS011;61997;53.974;11.670;2022-07-22T05:42:45;4.20;;;3.22;;
73693;SDS011;61997;53.974;11.670;2022-07-22T05:45:10;5.00;;;3.80;;
73693;SDS011;61997;53.974;11.670;2022-07-22T05:47:36;5.53;;;3.60;;
73693;SDS011;61997;53.974;11.670;2022-07-22T05:50:01;4.10;;;3.30;;
73693;SDS011;61997;53.974;11.670;2022-07-22T05:52:27;5.32;;;3.35;;
73693;SDS011;61997;53.974;11.670;2022-07-22T05:54:52;3.63;;;3.05;;
73693;SDS011;61997;53.974;11.670;2022-07-22T05:57:18;3.85;;;3.13;;
73693;SDS011;61997;53.974;11.670;2022-07-22T05:59:43;5.63;;;4.00;;
73693;SDS011;61997;53.974;11.670;2022-07-22T06:02:09;3.95;;;2.92;;
73693;SDS011;61997;53.974;11.670;2022-07-22T06:04:34;5.72;;;3.05;;
73693;SDS011;61997;53.974;11.670;2022-07-22T06:06:59;3.47;;;3.00;;
73693;SDS011;61997;53.974;11.670;2022-07-22T06:09:25;4.10;;;2.90;;
73693;SDS011;61997;53.974;11.670;2022-07-22T06:11:51;4.70;;;3.05;;
73693;SDS011;61997;53.974;11.670;2022-07-22T06:14:16;3.60;;;2.70;;
73693;SDS011;61997;53.974;11.670;2022-07-22T06:16:42;4.05;;;3.10;;
73693;SDS011;61997;53.974;11.670;2022-07-22T06:19:08;4.15;;;2.85;;
73693;SDS011;61997;53.974;11.670;2022-07-22T06:21:35;5.47;;;3.08;;
73693;SDS011;61997;53.974;11.670;2022-07-22T06:24:01;5.30;;;3.20;;
73693;SDS011;61997;53.974;11.670;2022-07-22T06:26:27;4.75;;;2.85;;
73693;SDS011;61997;53.974;11.670;2022-07-22T06:28:53;6.28;;;2.88;;
73693;SDS011;61997;53.974;11.670;2022-07-22T06:31:21;4.20;;;2.90;;
73693;SDS011;61997;53.974;11.670;2022-07-22T06:33:47;5.88;;;2.80;;
73693;SDS011;61997;53.974;11.670;2022-07-22T06:36:15;4.93;;;2.78;;
73693;SDS011;61997;53.974;11.670;2022-07-22T06:38:45;7.00;;;2.85;;
73693;SDS011;61997;53.974;11.670;2022-07-22T06:41:10;7.40;;;3.10;;
73693;SDS011;61997;53.974;11.670;2022-07-22T06:43:36;5.60;;;2.78;;
73693;SDS011;61997;53.974;11.670;2022-07-22T06:46:02;12.82;;;3.42;;
73693;SDS011;61997;53.974;11.670;2022-07-22T06:48:27;6.03;;;2.42;;
73693;SDS011;61997;53.974;11.670;2022-07-22T06:50:53;6.68;;;2.90;;
73693;SDS011;61997;53.974;11.670;2022-07-22T06:53:18;6.47;;;2.58;;
73693;SDS011;61997;53.974;11.670;2022-07-22T06:55:44;4.63;;;2.40;;
73693;SDS011;61997;53.974;11.670;2022-07-22T06:58:09;6.22;;;2.83;;
73693;SDS011;61997;53.974;11.670;2022-07-22T07:00:34;4.35;;;2.42;;
73693;SDS011;61997;53.974;11.670;2022-07-22T07:03:00;6.22;;;2.45;;
73693;SDS011;61997;53.974;11.670;2022-07-22T07:05:26;5.35;;;2.63;;
73693;SDS011;61997;53.974;11.670;2022-07-22T07:07:53;3.70;;;2.30;;
73693;SDS011;61997;53.974;11.670;2022-07-22T07:10:19;5.82;;;2.35;;
73693;SDS011;61997;53.974;11.670;2022-07-22T07:12:45;5.00;;;2.28;;
73693;SDS011;61997;53.974;11.670;2022-07-22T07:15:10;3.50;;;2.20;;
73693;SDS011;61997;53.974;11.670;2022-07-22T07:17:36;4.50;;;2.15;;
73693;SDS011;61997;53.974;11.670;2022-07-22T07:20:02;5.63;;;2.30;;
73693;SDS011;61997;53.974;11.670;2022-07-22T07:22:28;4.25;;;2.30;;
73693;SDS011;61997;53.974;11.670;2022-07-22T07:24:54;2.72;;;1.80;;
73693;SDS011;61997;53.974;11.670;2022-07-22T07:27:19;3.70;;;1.80;;
73693;SDS011;61997;53.974;11.670;2022-07-22T07:29:44;4.05;;;2.03;;
73693;SDS011;61997;53.974;11.670;2022-07-22T07:32:11;3.63;;;2.00;;
73693;SDS011;61997;53.974;11.670;2022-07-22T07:34:36;4.75;;;2.08;;
73693;SDS011;61997;53.974;11.670;2022-07-22T07:37:01;3.33;;;1.85;;
73693;SDS011;61997;53.974;11.670;2022-07-22T07:39:27;3.95;;;1.90;;
73693;SDS011;61997;53.974;11.670;2022-07-22T07:41:53;3.20;;;2.00;;
73693;SDS011;61997;53.974;11.670;2022-07-22T07:44:18;3.58;;;2.10;;
73693;SDS011;61997;53.974;11.670;2022-07-22T07:46:44;2.85;;;1.95;;
73693;SDS011;61997;53.974;11.670;2022-07-22T07:49:09;2.60;;;1.75;;
73693;SDS011;61997;53.974;11.670;2022-07-22T07:51:35;4.30;;;1.90;;
73693;SDS011;61997;53.974;11.670;2022-07-22T07:54:00;2.70;;;1.88;;
73693;SDS011;61997;53.974;11.670;2022-07-22T07:56:26;3.58;;;1.58;;
73693;SDS011;61997;53.974;11.670;2022-07-22T07:58:51;3.38;;;1.90;;
73693;SDS011;61997;53.974;11.670;2022-07-22T08:01:17;2.80;;;1.80;;
73693;SDS011;61997;53.974;11.670;2022-07-22T08:03:42;2.50;;;1.95;;
73693;SDS011;61997;53.974;11.670;2022-07-22T08:06:08;3.05;;;1.90;;
73693;SDS011;61997;53.974;11.670;2022-07-22T08:08:34;3.45;;;2.08;;
73693;SDS011;61997;53.974;11.670;2022-07-22T08:10:59;3.50;;;1.88;;
73693;SDS011;61997;53.974;11.670;2022-07-22T08:13:25;3.78;;;1.80;;
73693;SDS011;61997;53.974;11.670;2022-07-22T08:15:51;3.53;;;1.67;;
73693;SDS011;61997;53.974;11.670;2022-07-22T08:18:16;2.78;;;2.00;;
73693;SDS011;61997;53.974;11.670;2022-07-22T08:20:42;2.90;;;1.60;;
73693;SDS011;61997;53.974;11.670;2022-07-22T08:23:07;3.25;;;1.90;;
73693;SDS011;61997;53.974;11.670;2022-07-22T08:25:32;2.88;;;1.48;;
73693;SDS011;61997;53.974;11.670;2022-07-22T08:27:58;2.92;;;1.90;;
73693;SDS011;61997;53.974;11.670;2022-07-22T08:30:23;3.13;;;2.00;;
73693;SDS011;61997;53.974;11.670;2022-07-22T08:35:17;3.93;;;1.93;;
73693;SDS011;61997;53.974;11.670;2022-07-22T08:37:43;3.60;;;1.70;;
73693;SDS011;61997;53.974;11.670;2022-07-22T08:40:11;3.00;;;1.80;;
73693;SDS011;61997;53.974;11.670;2022-07-22T08:42:37;2.78;;;1.70;;
73693;SDS011;61997;53.974;11.670;2022-07-22T08:45:04;3.70;;;1.70;;
73693;SDS011;61997;53.974;11.670;2022-07-22T08:47:30;3.58;;;1.60;;
73693;SDS011;61997;53.974;11.670;2022-07-22T08:49:55;2.45;;;1.50;;
73693;SDS011;61997;53.974;11.670;2022-07-22T08:52:21;4.05;;;1.80;;
73693;SDS011;61997;53.974;11.670;2022-07-22T08:54:46;3.63;;;1.65;;
73693;SDS011;61997;53.974;11.670;2022-07-22T08:57:11;3.15;;;1.50;;
73693;SDS011;61997;53.974;11.670;2022-07-22T08:59:53;3.25;;;1.67;;
73693;SDS011;61997;53.974;11.670;2022-07-22T09:02:20;2.17;;;1.50;;
73693;SDS011;61997;53.974;11.670;2022-07-22T09:07:27;3.38;;;1.90;;
73693;SDS011;61997;53.974;11.670;2022-07-22T09:10:04;2.70;;;1.60;;
73693;SDS011;61997;53.974;11.670;2022-07-22T09:12:31;3.53;;;1.60;;
73693;SDS011;61997;53.974;11.670;2022-07-22T09:14:58;2.25;;;1.65;;
73693;SDS011;61997;53.974;11.670;2022-07-22T09:17:35;3.10;;;2.08;;
73693;SDS011;61997;53.974;11.670;2022-07-22T09:20:03;2.10;;;1.70;;
73693;SDS011;61997;53.974;11.670;2022-07-22T09:22:40;2.60;;;1.60;;
73693;SDS011;61997;53.974;11.670;2022-07-22T09:25:16;2.67;;;1.42;;
73693;SDS011;61997;53.974;11.670;2022-07-22T09:27:51;3.30;;;1.98;;
73693;SDS011;61997;53.974;11.670;2022-07-22T09:30:19;4.30;;;1.92;;
73693;SDS011;61997;53.974;11.670;2022-07-22T09:32:46;3.80;;;1.67;;
73693;SDS011;61997;53.974;11.670;2022-07-22T09:35:13;3.75;;;1.70;;
73693;SDS011;61997;53.974;11.670;2022-07-22T09:37:47;4.32;;;1.73;;
73693;SDS011;61997;53.974;11.670;2022-07-22T09:40:16;4.03;;;1.90;;
73693;SDS011;61997;53.974;11.670;2022-07-22T09:42:52;3.00;;;1.65;;
73693;SDS011;61997;53.974;11.670;2022-07-22T09:45:19;2.38;;;1.52;;
73693;SDS011;61997;53.974;11.670;2022-07-22T09:47:45;4.13;;;1.90;;
73693;SDS011;61997;53.974;11.670;2022-07-22T09:50:21;3.75;;;2.15;;
73693;SDS011;61997;53.974;11.670;2022-07-22T09:52:49;4.05;;;1.77;;
73693;SDS011;61997;53.974;11.670;2022-07-22T09:55:17;4.18;;;2.00;;
73693;SDS011;61997;53.974;11.670;2022-07-22T09:57:44;3.25;;;1.65;;
73693;SDS011;61997;53.974;11.670;2022-07-22T10:00:10;5.03;;;1.83;;
73693;SDS011;61997;53.974;11.670;2022-07-22T10:02:43;2.88;;;1.52;;
73693;SDS011;61997;53.974;11.670;2022-07-22T10:05:15;3.05;;;1.70;;
73693;SDS011;61997;53.974;11.670;2022-07-22T10:07:42;3.42;;;1.73;;
73693;SDS011;61997;53.974;11.670;2022-07-22T10:10:09;2.45;;;1.55;;
73693;SDS011;61997;53.974;11.670;2022-07-22T10:12:36;4.10;;;2.10;;
73693;SDS011;61997;53.974;11.670;2022-07-22T10:15:02;4.95;;;2.00;;
73693;SDS011;61997;53.974;11.670;2022-07-22T10:17:28;7.97;;;2.08;;
73693;SDS011;61997;53.974;11.670;2022-07-22T10:19:55;3.33;;;1.67;;
73693;SDS011;61997;53.974;11.670;2022-07-22T10:25:07;4.40;;;1.98;;
73693;SDS011;61997;53.974;11.670;2022-07-22T10:30:14;4.28;;;1.70;;
73693;SDS011;61997;53.974;11.670;2022-07-22T10:32:42;2.83;;;1.90;;
73693;SDS011;61997;53.974;11.670;2022-07-22T10:40:17;4.65;;;2.10;;
73693;SDS011;61997;53.974;11.670;2022-07-22T10:45:40;2.72;;;1.90;;
73693;SDS011;61997;53.974;11.670;2022-07-22T10:48:14;2.30;;;1.35;;
73693;SDS011;61997;53.974;11.670;2022-07-22T10:50:44;2.05;;;1.30;;
73693;SDS011;61997;53.974;11.670;2022-07-22T10:53:57;3.10;;;1.73;;
73693;SDS011;61997;53.974;11.670;2022-07-22T11:01:00;2.67;;;1.55;;
73693;SDS011;61997;53.974;11.670;2022-07-22T11:03:30;3.72;;;2.10;;
73693;SDS011;61997;53.974;11.670;2022-07-22T11:06:35;4.00;;;1.73;;
73693;SDS011;61997;53.974;11.670;2022-07-22T11:08:59;2.60;;;1.52;;
73693;SDS011;61997;53.974;11.670;2022-07-22T11:14:14;3.42;;;1.80;;
73693;SDS011;61997;53.974;11.670;2022-07-22T11:16:40;2.45;;;1.63;;
73693;SDS011;61997;53.974;11.670;2022-07-22T11:19:06;3.75;;;1.75;;
73693;SDS011;61997;53.974;11.670;2022-07-22T11:21:33;3.47;;;1.77;;
73693;SDS011;61997;53.974;11.670;2022-07-22T11:23:59;4.28;;;1.83;;
73693;SDS011;61997;53.974;11.670;2022-07-22T11:26:35;3.80;;;1.65;;
73693;SDS011;61997;53.974;11.670;2022-07-22T11:29:04;3.20;;;1.70;;
73693;SDS011;61997;53.974;11.670;2022-07-22T11:31:30;3.63;;;1.67;;
73693;SDS011;61997;53.974;11.670;2022-07-22T11:34:08;4.47;;;2.20;;
73693;SDS011;61997;53.974;11.670;2022-07-22T11:36:37;4.88;;;1.80;;
73693;SDS011;61997;53.974;11.670;2022-07-22T11:39:04;2.33;;;1.50;;
73693;SDS011;61997;53.974;11.670;2022-07-22T11:41:31;4.07;;;1.80;;
73693;SDS011;61997;53.974;11.670;2022-07-22T11:43:59;4.13;;;2.00;;
73693;SDS011;61997;53.974;11.670;2022-07-22T11:46:26;3.58;;;1.77;;
73693;SDS011;61997;53.974;11.670;2022-07-22T11:48:53;2.85;;;1.85;;
73693;SDS011;61997;53.974;11.670;2022-07-22T11:51:19;3.97;;;1.80;;
73693;SDS011;61997;53.974;11.670;2022-07-22T11:53:45;4.28;;;2.10;;
73693;SDS011;61997;53.974;11.670;2022-07-22T11:56:13;4.35;;;2.20;;
73693;SDS011;61997;53.974;11.670;2022-07-22T11:58:47;3.42;;;2.05;;
73693;SDS011;61997;53.974;11.670;2022-07-22T12:01:15;3.10;;;2.05;;
73693;SDS011;61997;53.974;11.670;2022-07-22T12:03:44;3.83;;;2.10;;
73693;SDS011;61997;53.974;11.670;2022-07-22T12:06:11;3.15;;;2.17;;
73693;SDS011;61997;53.974;11.670;2022-07-22T12:08:42;3.55;;;2.20;;
73693;SDS011;61997;53.974;11.670;2022-07-22T12:11:10;3.83;;;2.15;;
73693;SDS011;61997;53.974;11.670;2022-07-22T12:13:40;6.60;;;2.63;;
73693;SDS011;61997;53.974;11.670;2022-07-22T12:16:19;3.95;;;2.47;;
73693;SDS011;61997;53.974;11.670;2022-07-22T12:18:50;4.00;;;1.83;;
73693;SDS011;61997;53.974;11.670;2022-07-22T12:21:17;4.00;;;2.20;;
73693;SDS011;61997;53.974;11.670;2022-07-22T12:23:48;4.70;;;2.17;;
73693;SDS011;61997;53.974;11.670;2022-07-22T12:26:41;2.83;;;2.00;;
73693;SDS011;61997;53.974;11.670;2022-07-22T12:34:16;45.30;;;5.15;;
73693;SDS011;61997;53.974;11.670;2022-07-22T12:36:43;23.15;;;3.42;;
73693;SDS011;61997;53.974;11.670;2022-07-22T12:39:16;29.33;;;5.82;;
73693;SDS011;61997;53.974;11.670;2022-07-22T12:41:46;39.42;;;5.18;;
73693;SDS011;61997;53.974;11.670;2022-07-22T12:44:21;28.10;;;4.38;;
73693;SDS011;61997;53.974;11.670;2022-07-22T12:46:49;23.45;;;4.53;;
73693;SDS011;61997;53.974;11.670;2022-07-22T12:49:17;31.60;;;5.05;;
73693;SDS011;61997;53.974;11.670;2022-07-22T12:54:38;19.45;;;4.13;;
73693;SDS011;61997;53.974;11.670;2022-07-22T12:57:05;22.83;;;4.60;;
73693;SDS011;61997;53.974;11.670;2022-07-22T12:59:32;25.05;;;4.43;;
73693;SDS011;61997;53.974;11.670;2022-07-22T13:01:59;24.45;;;4.05;;
73693;SDS011;61997;53.974;11.670;2022-07-22T13:04:24;17.70;;;3.90;;
73693;SDS011;61997;53.974;11.670;2022-07-22T13:06:50;19.45;;;3.75;;
73693;SDS011;61997;53.974;11.670;2022-07-22T13:09:16;16.33;;;3.58;;
73693;SDS011;61997;53.974;11.670;2022-07-22T13:11:41;22.38;;;3.60;;
73693;SDS011;61997;53.974;11.670;2022-07-22T13:14:10;19.50;;;4.13;;
73693;SDS011;61997;53.974;11.670;2022-07-22T13:16:36;14.52;;;3.10;;
73693;SDS011;61997;53.974;11.670;2022-07-22T13:19:01;14.98;;;3.45;;
73693;SDS011;61997;53.974;11.670;2022-07-22T13:21:27;16.33;;;3.47;;
73693;SDS011;61997;53.974;11.670;2022-07-22T13:23:52;10.05;;;2.65;;
73693;SDS011;61997;53.974;11.670;2022-07-22T13:26:18;11.15;;;3.13;;
73693;SDS011;61997;53.974;11.670;2022-07-22T13:28:43;11.55;;;2.88;;
73693;SDS011;61997;53.974;11.670;2022-07-22T13:31:10;11.32;;;2.97;;
73693;SDS011;61997;53.974;11.670;2022-07-22T13:33:36;12.85;;;3.00;;
73693;SDS011;61997;53.974;11.670;2022-07-22T13:36:02;10.65;;;2.63;;
73693;SDS011;61997;53.974;11.670;2022-07-22T13:38:28;15.63;;;3.55;;
73693;SDS011;61997;53.974;11.670;2022-07-22T13:40:53;11.30;;;2.42;;
73693;SDS011;61997;53.974;11.670;2022-07-22T13:43:22;13.32;;;2.83;;
73693;SDS011;61997;53.974;11.670;2022-07-22T13:45:48;11.50;;;2.60;;
73693;SDS011;61997;53.974;11.670;2022-07-22T13:48:14;7.45;;;1.90;;
73693;SDS011;61997;53.974;11.670;2022-07-22T13:50:42;6.47;;;2.25;;
73693;SDS011;61997;53.974;11.670;2022-07-22T13:53:07;8.25;;;2.25;;
73693;SDS011;61997;53.974;11.670;2022-07-22T13:55:33;7.00;;;2.40;;
73693;SDS011;61997;53.974;11.670;2022-07-22T13:57:58;6.13;;;2.30;;
73693;SDS011;61997;53.974;11.670;2022-07-22T14:00:24;6.35;;;2.42;;
73693;SDS011;61997;53.974;11.670;2022-07-22T14:02:49;5.93;;;2.20;;
73693;SDS011;61997;53.974;11.670;2022-07-22T14:05:15;6.03;;;2.08;;
73693;SDS011;61997;53.974;11.670;2022-07-22T14:07:41;6.35;;;2.08;;
73693;SDS011;61997;53.974;11.670;2022-07-22T14:10:07;8.07;;;2.45;;
73693;SDS011;61997;53.974;11.670;2022-07-22T14:12:32;8.80;;;2.08;;
73693;SDS011;61997;53.974;11.670;2022-07-22T14:14:58;4.10;;;1.73;;
73693;SDS011;61997;53.974;11.670;2022-07-22T14:17:23;9.80;;;2.40;;
73693;SDS011;61997;53.974;11.670;2022-07-22T14:19:49;4.53;;;1.63;;
73693;SDS011;61997;53.974;11.670;2022-07-22T14:22:14;4.65;;;1.98;;
73693;SDS011;61997;53.974;11.670;2022-07-22T14:24:39;5.65;;;1.90;;
73693;SDS011;61997;53.974;11.670;2022-07-22T14:27:05;4.22;;;2.03;;
73693;SDS011;61997;53.974;11.670;2022-07-22T14:29:30;5.32;;;2.03;;
73693;SDS011;61997;53.974;11.670;2022-07-22T14:31:55;4.97;;;1.70;;
73693;SDS011;61997;53.974;11.670;2022-07-22T14:34:21;6.00;;;1.83;;
73693;SDS011;61997;53.974;11.670;2022-07-22T14:36:47;4.50;;;1.83;;
73693;SDS011;61997;53.974;11.670;2022-07-22T14:39:12;3.70;;;1.77;;
73693;SDS011;61997;53.974;11.670;2022-07-22T14:41:37;5.28;;;2.25;;
73693;SDS011;61997;53.974;11.670;2022-07-22T14:44:03;8.02;;;2.25;;
73693;SDS011;61997;53.974;11.670;2022-07-22T14:46:29;5.55;;;2.10;;
73693;SDS011;61997;53.974;11.670;2022-07-22T14:48:54;4.50;;;1.70;;
73693;SDS011;61997;53.974;11.670;2022-07-22T14:51:20;4.25;;;1.88;;
73693;SDS011;61997;53.974;11.670;2022-07-22T14:53:47;5.50;;;1.60;;
73693;SDS011;61997;53.974;11.670;2022-07-22T14:56:13;5.35;;;2.13;;
73693;SDS011;61997;53.974;11.670;2022-07-22T14:58:38;3.65;;;1.70;;
73693;SDS011;61997;53.974;11.670;2022-07-22T15:01:04;5.40;;;1.60;;
73693;SDS011;61997;53.974;11.670;2022-07-22T15:03:29;5.55;;;2.10;;
73693;SDS011;61997;53.974;11.670;2022-07-22T15:05:55;2.92;;;1.73;;